Time;durP1;ratioP1;P1;durP2;ratioP2;P2;SDS_P1;SDS_P2;PMS_P1;PMS_P2;Temp;Humidity;BMP_temperature;BMP_pressure;BME280_temperature;BME280_humidity;BME280_pressure;Samples;Min_cycle;Max_cycle;Signal;HPM_P1;HPM_P2
2023/08/27 00:01:05;;;;;;;;;;;16.40;99.90;;;;;;5113283;28;19912;-74
2023/08/27 00:03:32;;;;;;;;;;;16.50;99.90;;;;;;5111715;28;20360;-72
2023/08/27 00:05:58;;;;;;;;;;;16.50;99.90;;;;;;5104150;28;19912;-68
2023/08/27 00:08:25;;;;;;;;;;;16.70;99.90;;;;;;5109848;28;19918;-72
2023/08/27 00:10:56;;;;;;;;;;;16.80;99.90;;;;;;5109588;28;19912;-69
2023/08/27 00:13:23;;;;;;;;;;;16.90;99.90;;;;;;5091028;28;20345;-69
2023/08/27 00:15:50;;;;;;;;;;;17.00;99.90;;;;;;5090669;28;19908;-67
2023/08/27 00:18:16;;;;;;;;;;;17.10;99.90;;;;;;5097113;28;19911;-68
2023/08/27 00:20:46;;;;;;;;;;;17.30;99.90;;;;;;5112835;28;20368;-68
2023/08/27 00:23:12;;;;;;;;;;;17.30;99.90;;;;;;5109833;28;20017;-68
2023/08/27 00:25:39;;;;;;;;;;;17.40;99.90;;;;;;5093309;28;20368;-67
2023/08/27 00:28:07;;;;;;;;;;;17.40;99.90;;;;;;5098626;28;19955;-72
2023/08/27 00:30:34;;;;;;;;;;;17.50;99.90;;;;;;5104710;28;19923;-69
2023/08/27 00:33:00;;;;;;;;;;;17.50;99.90;;;;;;5105838;28;20257;-71
2023/08/27 00:35:27;;;;;;;;;;;17.60;99.90;;;;;;5108796;28;19911;-71
2023/08/27 00:37:54;;;;;;;;;;;17.70;99.90;;;;;;5109476;28;19931;-73
2023/08/27 00:40:20;;;;;;;;;;;17.80;99.90;;;;;;5108503;28;19955;-72
2023/08/27 00:42:47;;;;;;;;;;;17.90;99.90;;;;;;5110611;28;20395;-72
2023/08/27 00:45:14;;;;;;;;;;;18.00;99.90;;;;;;5111542;28;19927;-69
2023/08/27 00:47:40;;;;;;;;;;;18.10;99.90;;;;;;5115983;28;19919;-70
2023/08/27 00:50:09;;;;;;;;;;;18.10;99.90;;;;;;5116609;28;20017;-68
2023/08/27 00:52:35;;;;;;;;;;;18.20;99.90;;;;;;5113540;28;19994;-70
2023/08/27 00:55:03;;;;;;;;;;;18.30;99.90;;;;;;5101912;28;19916;-76
2023/08/27 00:57:31;;;;;;;;;;;18.50;99.90;;;;;;5102025;28;19998;-69
2023/08/27 00:59:58;;;;;;;;;;;18.50;99.90;;;;;;5116106;28;19915;-75
2023/08/27 01:02:25;;;;;;;;;;;18.60;99.90;;;;;;5109497;28;19912;-75
2023/08/27 01:04:53;;;;;;;;;;;18.80;99.90;;;;;;5112775;28;19957;-74
2023/08/27 01:07:34;;;;;;;;;;;18.80;99.90;;;;;;5115769;28;19911;-76
2023/08/27 01:10:08;;;;;;;;;;;18.90;99.90;;;;;;5095617;28;19912;-73
2023/08/27 01:12:54;;;;;;;;;;;19.00;99.90;;;;;;5104539;28;19915;-75
2023/08/27 01:15:22;;;;;;;;;;;19.10;99.90;;;;;;5108040;28;19971;-77
2023/08/27 01:17:49;;;;;;;;;;;19.10;99.90;;;;;;5113683;28;19907;-73
2023/08/27 01:20:16;;;;;;;;;;;19.30;99.90;;;;;;5112829;28;20276;-70
2023/08/27 01:22:43;;;;;;;;;;;19.50;99.90;;;;;;5114109;28;19912;-72
2023/08/27 01:25:10;;;;;;;;;;;19.50;99.90;;;;;;5115998;28;19930;-71
2023/08/27 01:27:44;;;;;;;;;;;19.60;99.90;;;;;;5115191;28;19991;-76
2023/08/27 01:30:15;;;;;;;;;;;19.70;99.90;;;;;;5115439;28;19908;-71
2023/08/27 01:32:59;;;;;;;;;;;19.80;99.90;;;;;;5115849;28;19908;-70
2023/08/27 01:35:26;;;;;;;;;;;20.00;99.90;;;;;;5101729;28;20439;-74
2023/08/27 01:37:53;;;;;;;;;;;20.00;99.90;;;;;;5094910;28;19912;-68
2023/08/27 01:40:19;;;;;;;;;;;20.10;99.90;;;;;;5103803;28;19927;-67
2023/08/27 01:42:47;;;;;;;;;;;20.20;99.90;;;;;;5102395;28;19911;-75
2023/08/27 01:45:17;;;;;;;;;;;20.30;99.90;;;;;;5096310;28;19968;-73
2023/08/27 01:47:44;;;;;;;;;;;20.20;99.90;;;;;;5097002;28;20022;-76
2023/08/27 01:50:11;;;;;;;;;;;20.20;99.90;;;;;;5114751;28;19908;-72
2023/08/27 01:52:37;;;;;;;;;;;20.30;99.90;;;;;;5114705;28;19994;-71
2023/08/27 01:55:10;;;;;;;;;;;20.30;99.90;;;;;;5114413;28;19916;-73
2023/08/27 01:57:37;;;;;;;;;;;20.20;99.90;;;;;;5114707;28;20260;-72
2023/08/27 02:00:08;;;;;;;;;;;20.40;99.90;;;;;;5114412;28;19916;-73
2023/08/27 02:02:36;;;;;;;;;;;20.90;99.90;;;;;;5113491;28;19916;-74
2023/08/27 02:05:06;;;;;;;;;;;21.10;99.70;;;;;;5113313;28;19919;-69
2023/08/27 02:07:36;;;;;;;;;;;21.20;99.80;;;;;;5112466;28;19961;-68
2023/08/27 02:10:04;;;;;;;;;;;21.50;99.90;;;;;;5114380;28;19947;-71
2023/08/27 02:12:32;;;;;;;;;;;21.90;98.40;;;;;;5110523;28;20364;-73
2023/08/27 02:14:59;;;;;;;;;;;22.20;98.10;;;;;;5111991;28;19911;-72
2023/08/27 02:17:25;;;;;;;;;;;22.60;97.70;;;;;;5114008;28;19908;-69
2023/08/27 02:19:52;;;;;;;;;;;22.80;96.20;;;;;;5114001;28;19916;-74
2023/08/27 02:22:19;;;;;;;;;;;22.60;95.20;;;;;;5113973;28;19908;-75
2023/08/27 02:24:46;;;;;;;;;;;22.40;95.10;;;;;;5105367;28;19995;-73
2023/08/27 02:27:12;;;;;;;;;;;22.40;95.00;;;;;;5093736;28;19955;-75
2023/08/27 02:29:39;;;;;;;;;;;22.40;95.20;;;;;;5093767;28;19944;-68
2023/08/27 02:32:06;;;;;;;;;;;22.30;95.80;;;;;;5097362;28;19907;-72
2023/08/27 02:34:32;;;;;;;;;;;22.00;96.30;;;;;;5114062;28;19957;-70
2023/08/27 02:36:59;;;;;;;;;;;21.80;96.50;;;;;;5114314;28;19908;-70
2023/08/27 02:39:26;;;;;;;;;;;21.80;96.60;;;;;;5113754;28;19912;-75
2023/08/27 02:41:52;;;;;;;;;;;22.00;97.50;;;;;;5114089;28;19912;-72
2023/08/27 02:44:19;;;;;;;;;;;22.90;95.80;;;;;;5113270;28;19962;-68
2023/08/27 02:46:45;;;;;;;;;;;23.40;93.70;;;;;;5113758;28;19942;-71
2023/08/27 02:49:12;;;;;;;;;;;23.80;94.00;;;;;;5113964;28;19915;-68
2023/08/27 02:51:39;;;;;;;;;;;24.80;93.40;;;;;;5105892;28;19974;-69
2023/08/27 02:54:05;;;;;;;;;;;25.80;93.10;;;;;;5093408;28;20430;-70
2023/08/27 02:56:32;;;;;;;;;;;27.10;91.00;;;;;;5092417;28;20276;-69
2023/08/27 02:58:59;;;;;;;;;;;27.90;90.60;;;;;;5093211;28;19915;-71
2023/08/27 03:01:25;;;;;;;;;;;29.40;85.50;;;;;;5112343;28;19915;-71
2023/08/27 03:03:52;;;;;;;;;;;30.80;81.20;;;;;;5112718;28;20357;-72
2023/08/27 03:06:19;;;;;;;;;;;32.00;77.70;;;;;;5113375;28;20064;-72
2023/08/27 03:08:45;;;;;;;;;;;32.90;73.70;;;;;;5109903;28;20253;-72
2023/08/27 03:11:12;;;;;;;;;;;33.00;72.00;;;;;;5094767;28;19915;-68
2023/08/27 03:13:38;;;;;;;;;;;31.80;71.90;;;;;;5111524;28;19919;-72
2023/08/27 03:16:05;;;;;;;;;;;31.20;72.50;;;;;;5098576;28;19914;-72
2023/08/27 03:18:32;;;;;;;;;;;31.50;73.00;;;;;;5110571;28;19915;-71
2023/08/27 03:20:59;;;;;;;;;;;31.00;71.50;;;;;;5092144;28;19952;-75
2023/08/27 03:23:26;;;;;;;;;;;29.60;74.30;;;;;;5104630;28;20390;-74
2023/08/27 03:25:52;;;;;;;;;;;29.20;75.30;;;;;;5095090;28;19908;-71
2023/08/27 03:28:19;;;;;;;;;;;29.40;74.10;;;;;;5104015;27;19965;-70
2023/08/27 03:30:46;;;;;;;;;;;29.00;75.00;;;;;;5092406;28;19914;-69
2023/08/27 03:33:12;;;;;;;;;;;30.00;73.60;;;;;;5083672;28;19919;-68
2023/08/27 03:35:39;;;;;;;;;;;30.40;72.20;;;;;;5094720;28;20695;-72
2023/08/27 03:38:05;;;;;;;;;;;30.90;73.40;;;;;;5098628;27;19951;-71
2023/08/27 03:40:32;;;;;;;;;;;31.80;71.30;;;;;;5091721;28;19928;-72
2023/08/27 03:42:59;;;;;;;;;;;33.10;69.00;;;;;;5099293;28;19981;-74
2023/08/27 03:45:25;;;;;;;;;;;34.10;67.10;;;;;;5104963;28;20014;-70
2023/08/27 03:47:52;;;;;;;;;;;34.50;65.40;;;;;;5106954;28;19912;-72
2023/08/27 03:50:19;;;;;;;;;;;34.30;64.80;;;;;;5091768;28;19919;-70
2023/08/27 03:52:46;;;;;;;;;;;34.00;64.80;;;;;;5096479;28;19961;-70
2023/08/27 03:55:13;;;;;;;;;;;33.30;65.30;;;;;;5099508;28;19957;-74
2023/08/27 03:57:39;;;;;;;;;;;33.90;65.00;;;;;;5098568;28;19911;-71
2023/08/27 04:00:08;;;;;;;;;;;34.40;63.10;;;;;;5092168;28;19927;-73
2023/08/27 04:02:35;;;;;;;;;;;34.50;62.90;;;;;;5095879;28;19926;-73
2023/08/27 04:05:04;;;;;;;;;;;35.10;62.20;;;;;;5101649;28;19957;-74
2023/08/27 04:07:31;;;;;;;;;;;35.50;61.20;;;;;;5100373;28;19976;-72
2023/08/27 04:09:58;;;;;;;;;;;34.90;61.60;;;;;;5094001;28;20365;-69
2023/08/27 04:12:25;;;;;;;;;;;34.70;61.80;;;;;;5106110;28;19979;-70
2023/08/27 04:14:51;;;;;;;;;;;34.60;62.10;;;;;;5103171;28;20670;-71
2023/08/27 04:17:18;;;;;;;;;;;34.90;61.50;;;;;;5106071;28;19919;-70
2023/08/27 04:19:44;;;;;;;;;;;34.90;60.60;;;;;;5096555;28;19928;-73
2023/08/27 04:22:11;;;;;;;;;;;34.90;61.10;;;;;;5095689;28;19912;-73
2023/08/27 04:24:38;;;;;;;;;;;35.40;59.80;;;;;;5109654;27;19911;-72
2023/08/27 04:27:04;;;;;;;;;;;35.10;59.30;;;;;;5101351;28;19920;-69
2023/08/27 04:29:31;;;;;;;;;;;33.90;61.80;;;;;;5102866;27;19908;-75
2023/08/27 04:31:58;;;;;;;;;;;34.20;61.20;;;;;;5100698;28;20405;-68
2023/08/27 04:34:24;;;;;;;;;;;34.20;61.40;;;;;;5107347;28;19912;-72
2023/08/27 04:36:51;;;;;;;;;;;34.40;61.20;;;;;;5101545;28;20376;-73
2023/08/27 04:39:18;;;;;;;;;;;32.60;63.00;;;;;;5113062;27;19912;-73
2023/08/27 04:41:44;;;;;;;;;;;32.30;63.30;;;;;;5095438;28;19912;-72
2023/08/27 04:44:11;;;;;;;;;;;32.40;63.10;;;;;;5103255;28;19965;-73
2023/08/27 04:46:37;;;;;;;;;;;32.80;62.60;;;;;;5096091;28;19926;-72
2023/08/27 04:49:04;;;;;;;;;;;31.90;64.20;;;;;;5111546;28;19967;-73
2023/08/27 04:51:31;;;;;;;;;;;32.70;63.60;;;;;;5095188;28;19955;-73
2023/08/27 04:53:57;;;;;;;;;;;33.50;62.20;;;;;;5099362;28;20322;-73
2023/08/27 04:56:24;;;;;;;;;;;33.30;62.10;;;;;;5098098;28;20340;-72
2023/08/27 04:58:51;;;;;;;;;;;34.20;62.00;;;;;;5109070;28;19999;-70
2023/08/27 05:01:17;;;;;;;;;;;34.50;61.20;;;;;;5099498;28;19912;-72
2023/08/27 05:03:44;;;;;;;;;;;34.10;60.70;;;;;;5100504;28;20383;-71
2023/08/27 05:06:11;;;;;;;;;;;33.00;62.30;;;;;;5094635;28;19915;-72
2023/08/27 05:08:37;;;;;;;;;;;32.50;62.70;;;;;;5107943;28;19919;-68
2023/08/27 05:11:04;;;;;;;;;;;32.80;62.70;;;;;;5111648;28;19919;-73
2023/08/27 05:13:31;;;;;;;;;;;33.30;61.90;;;;;;5111322;27;19919;-70
2023/08/27 05:15:57;;;;;;;;;;;34.00;61.00;;;;;;5094409;28;20002;-72
2023/08/27 05:18:24;;;;;;;;;;;34.60;60.80;;;;;;5106532;28;20057;-69
2023/08/27 05:20:50;;;;;;;;;;;34.60;61.00;;;;;;5104258;28;19916;-68
2023/08/27 05:23:17;;;;;;;;;;;34.70;59.90;;;;;;5106286;27;19919;-70
2023/08/27 05:25:44;;;;;;;;;;;34.80;59.80;;;;;;5105824;28;19919;-68
2023/08/27 05:28:11;;;;;;;;;;;35.60;59.20;;;;;;5111622;28;20049;-71
2023/08/27 05:30:38;;;;;;;;;;;34.30;59.10;;;;;;5114394;28;19934;-71
2023/08/27 05:33:04;;;;;;;;;;;34.50;59.40;;;;;;5115473;28;19914;-73
2023/08/27 05:35:31;;;;;;;;;;;32.60;61.90;;;;;;5103640;28;19939;-69
2023/08/27 05:37:57;;;;;;;;;;;32.60;62.90;;;;;;5111309;28;19911;-72
2023/08/27 05:40:24;;;;;;;;;;;32.40;61.80;;;;;;5110174;28;19920;-72
2023/08/27 05:42:51;;;;;;;;;;;31.70;62.60;;;;;;5104635;28;19908;-72
2023/08/27 05:45:18;;;;;;;;;;;31.40;63.30;;;;;;5115017;28;19916;-71
2023/08/27 05:47:44;;;;;;;;;;;31.40;63.70;;;;;;5113968;28;20384;-70
2023/08/27 05:50:11;;;;;;;;;;;32.00;62.30;;;;;;5109494;28;19933;-71
2023/08/27 05:52:38;;;;;;;;;;;31.10;63.80;;;;;;5077544;28;19965;-70
2023/08/27 05:55:04;;;;;;;;;;;32.00;63.10;;;;;;5094985;28;19957;-70
2023/08/27 05:57:31;;;;;;;;;;;32.80;62.70;;;;;;5093728;28;20375;-69
2023/08/27 05:59:58;;;;;;;;;;;32.60;61.70;;;;;;5094509;28;19912;-68
2023/08/27 06:02:24;;;;;;;;;;;31.30;63.40;;;;;;5102954;28;19915;-69
2023/08/27 06:04:51;;;;;;;;;;;31.70;62.60;;;;;;5114786;28;19912;-69
2023/08/27 06:07:18;;;;;;;;;;;30.80;63.70;;;;;;5110004;28;19916;-70
2023/08/27 06:09:44;;;;;;;;;;;30.30;64.70;;;;;;5092295;28;19989;-69
2023/08/27 06:12:11;;;;;;;;;;;30.20;64.80;;;;;;5092291;28;19916;-70
2023/08/27 06:14:37;;;;;;;;;;;30.40;65.20;;;;;;5093421;28;19912;-70
2023/08/27 06:17:04;;;;;;;;;;;30.20;64.00;;;;;;5092019;28;19916;-69
2023/08/27 06:19:31;;;;;;;;;;;29.80;66.30;;;;;;5092089;28;20010;-70
2023/08/27 06:21:57;;;;;;;;;;;28.80;66.70;;;;;;5093799;28;19915;-69
2023/08/27 06:24:24;;;;;;;;;;;27.90;68.10;;;;;;5094300;28;19912;-70
2023/08/27 06:26:51;;;;;;;;;;;26.50;71.10;;;;;;5095028;28;19915;-71
2023/08/27 06:29:17;;;;;;;;;;;24.40;75.70;;;;;;5114116;28;20080;-71
2023/08/27 06:31:44;;;;;;;;;;;23.40;77.90;;;;;;5114444;28;20002;-70
2023/08/27 06:34:10;;;;;;;;;;;22.60;81.00;;;;;;5114361;28;20006;-69
2023/08/27 06:36:37;;;;;;;;;;;22.20;82.50;;;;;;5097853;28;19967;-69
2023/08/27 06:39:04;;;;;;;;;;;21.70;84.00;;;;;;5093845;28;20336;-69
2023/08/27 06:41:30;;;;;;;;;;;21.20;86.40;;;;;;5103444;28;20269;-69
2023/08/27 06:43:57;;;;;;;;;;;20.80;87.60;;;;;;5113630;28;19913;-67
2023/08/27 06:46:23;;;;;;;;;;;20.40;89.70;;;;;;5114155;28;19919;-67
2023/08/27 06:48:50;;;;;;;;;;;20.30;90.20;;;;;;5093785;28;19912;-67
2023/08/27 06:51:17;;;;;;;;;;;20.10;90.80;;;;;;5093707;28;19908;-66
2023/08/27 06:53:43;;;;;;;;;;;20.00;91.30;;;;;;5093688;28;19962;-67
2023/08/27 06:56:10;;;;;;;;;;;19.80;91.70;;;;;;5093819;28;20013;-69
2023/08/27 06:58:36;;;;;;;;;;;19.40;92.40;;;;;;5093589;28;20288;-68
2023/08/27 07:01:06;;;;;;;;;;;19.20;93.00;;;;;;5093074;28;20008;-68
2023/08/27 07:03:33;;;;;;;;;;;19.20;93.50;;;;;;5093613;28;19912;-68
2023/08/27 07:05:59;;;;;;;;;;;19.00;94.20;;;;;;5096187;28;19951;-68
2023/08/27 07:08:26;;;;;;;;;;;19.00;94.40;;;;;;5113689;28;19908;-68
2023/08/27 07:10:53;;;;;;;;;;;19.00;94.70;;;;;;5113716;28;20416;-69
2023/08/27 07:13:19;;;;;;;;;;;19.00;95.10;;;;;;5113499;28;19907;-69
2023/08/27 07:15:46;;;;;;;;;;;18.80;95.70;;;;;;5113469;28;19907;-68
2023/08/27 07:18:15;;;;;;;;;;;18.70;96.30;;;;;;5113567;28;19912;-68
2023/08/27 07:20:41;;;;;;;;;;;18.60;96.60;;;;;;5113250;28;19916;-70
2023/08/27 07:23:08;;;;;;;;;;;18.60;97.20;;;;;;5113598;28;20019;-68
2023/08/27 07:25:35;;;;;;;;;;;18.60;97.30;;;;;;5103594;28;20292;-67
2023/08/27 07:28:01;;;;;;;;;;;18.50;97.60;;;;;;5100767;28;19912;-68
2023/08/27 07:30:28;;;;;;;;;;;18.50;97.70;;;;;;5110864;28;19925;-67
2023/08/27 07:32:54;;;;;;;;;;;18.50;97.90;;;;;;5108594;28;20016;-68
2023/08/27 07:35:21;;;;;;;;;;;18.50;98.10;;;;;;5096089;28;20061;-71
2023/08/27 07:37:49;;;;;;;;;;;18.50;98.30;;;;;;5093490;28;19987;-67
2023/08/27 07:40:15;;;;;;;;;;;18.50;98.50;;;;;;5098349;28;19927;-69
2023/08/27 07:42:42;;;;;;;;;;;18.40;98.80;;;;;;5110888;28;19915;-70
2023/08/27 07:45:09;;;;;;;;;;;18.40;98.90;;;;;;5111986;28;20410;-68
2023/08/27 07:47:36;;;;;;;;;;;18.30;99.20;;;;;;5112114;28;19922;-69
2023/08/27 07:50:02;;;;;;;;;;;18.20;99.30;;;;;;5112628;28;20288;-69
2023/08/27 07:52:29;;;;;;;;;;;18.10;99.70;;;;;;5112769;28;19912;-67
2023/08/27 07:54:56;;;;;;;;;;;18.10;99.90;;;;;;5114401;28;20260;-67
2023/08/27 07:57:22;;;;;;;;;;;18.00;99.90;;;;;;5115169;28;19908;-70
2023/08/27 07:59:51;;;;;;;;;;;18.00;99.90;;;;;;5078486;28;19996;-69
2023/08/27 08:02:18;;;;;;;;;;;17.90;99.90;;;;;;5100686;28;19912;-68
2023/08/27 08:04:44;;;;;;;;;;;18.00;99.90;;;;;;5096286;28;20015;-68
2023/08/27 08:07:11;;;;;;;;;;;18.00;99.90;;;;;;5096384;28;19908;-68
2023/08/27 08:09:37;;;;;;;;;;;17.90;99.90;;;;;;5096807;28;19915;-68
2023/08/27 08:12:04;;;;;;;;;;;17.90;99.90;;;;;;5103851;28;19912;-67
2023/08/27 08:14:31;;;;;;;;;;;17.90;99.90;;;;;;5100875;28;19973;-68
2023/08/27 08:16:58;;;;;;;;;;;17.90;99.90;;;;;;5096533;28;19912;-66
2023/08/27 08:19:24;;;;;;;;;;;17.80;99.90;;;;;;5096001;28;19920;-68
2023/08/27 08:21:51;;;;;;;;;;;17.80;99.90;;;;;;5100210;28;19916;-67
2023/08/27 08:24:17;;;;;;;;;;;17.70;99.90;;;;;;5103362;28;19915;-65
2023/08/27 08:26:44;;;;;;;;;;;17.70;99.90;;;;;;5096477;28;19912;-70
2023/08/27 08:29:11;;;;;;;;;;;17.70;99.90;;;;;;5109032;28;19919;-67
2023/08/27 08:31:38;;;;;;;;;;;17.70;99.90;;;;;;5099013;28;19958;-67
2023/08/27 08:34:04;;;;;;;;;;;17.60;99.90;;;;;;5100729;28;19915;-67
2023/08/27 08:36:31;;;;;;;;;;;17.70;99.90;;;;;;5099362;28;19953;-67
2023/08/27 08:38:58;;;;;;;;;;;17.70;99.90;;;;;;5095244;28;19951;-67
2023/08/27 08:41:27;;;;;;;;;;;17.60;99.90;;;;;;5099361;28;20006;-67
2023/08/27 08:44:08;;;;;;;;;;;17.60;99.90;;;;;;5103215;28;19927;-67
2023/08/27 08:46:35;;;;;;;;;;;17.60;99.90;;;;;;5095480;28;19920;-68
2023/08/27 08:49:03;;;;;;;;;;;17.50;99.90;;;;;;5102661;28;20440;-70
2023/08/27 08:51:30;;;;;;;;;;;17.60;99.90;;;;;;5093583;28;19984;-67
2023/08/27 08:53:59;;;;;;;;;;;17.50;99.90;;;;;;5113168;28;19934;-69
2023/08/27 08:56:44;;;;;;;;;;;17.40;99.90;;;;;;5091998;28;20276;-66
2023/08/27 08:59:11;;;;;;;;;;;17.40;99.90;;;;;;5103674;27;19923;-68
2023/08/27 09:01:38;;;;;;;;;;;17.30;99.90;;;;;;5106513;28;19916;-68
2023/08/27 09:04:06;;;;;;;;;;;17.30;99.90;;;;;;5098145;28;19915;-67
2023/08/27 09:06:33;;;;;;;;;;;17.30;99.90;;;;;;5100022;28;20058;-69
2023/08/27 09:09:01;;;;;;;;;;;17.20;99.90;;;;;;5096820;28;19911;-68
2023/08/27 09:11:28;;;;;;;;;;;17.20;99.90;;;;;;5106407;28;20391;-67
2023/08/27 09:13:56;;;;;;;;;;;17.20;99.90;;;;;;5111528;27;19996;-67
2023/08/27 09:16:23;;;;;;;;;;;17.20;99.90;;;;;;5111777;28;19911;-66
2023/08/27 09:18:50;;;;;;;;;;;17.20;99.90;;;;;;5109785;27;19961;-68
2023/08/27 09:21:16;;;;;;;;;;;17.20;99.90;;;;;;5102585;28;19928;-66
2023/08/27 09:23:43;;;;;;;;;;;17.10;99.90;;;;;;5112206;28;19908;-68
2023/08/27 09:26:12;;;;;;;;;;;17.10;99.90;;;;;;5112416;28;19912;-66
2023/08/27 09:28:39;;;;;;;;;;;17.10;99.90;;;;;;5111293;28;19912;-68
2023/08/27 09:31:09;;;;;;;;;;;17.20;99.90;;;;;;5109383;27;19912;-66
2023/08/27 09:33:40;;;;;;;;;;;17.20;99.90;;;;;;5095305;28;19908;-67
2023/08/27 09:36:07;;;;;;;;;;;17.20;99.90;;;;;;5103003;27;19913;-66
2023/08/27 09:38:34;;;;;;;;;;;17.10;99.90;;;;;;5095159;28;20288;-67
2023/08/27 09:41:15;;;;;;;;;;;17.00;99.90;;;;;;5113068;27;19920;-65
2023/08/27 09:43:47;;;;;;;;;;;17.00;99.90;;;;;;5103790;28;20363;-67
2023/08/27 09:46:16;;;;;;;;;;;17.00;99.90;;;;;;5094899;27;19927;-67
2023/08/27 09:48:43;;;;;;;;;;;16.90;99.90;;;;;;5093980;28;19961;-67
2023/08/27 09:51:11;;;;;;;;;;;17.00;99.90;;;;;;5096267;27;20430;-69
2023/08/27 09:53:38;;;;;;;;;;;17.00;99.90;;;;;;5104723;28;19908;-68
2023/08/27 09:56:04;;;;;;;;;;;16.90;99.90;;;;;;5097206;28;19919;-67
2023/08/27 09:58:31;;;;;;;;;;;16.90;99.90;;;;;;5109109;28;19919;-67
2023/08/27 10:00:59;;;;;;;;;;;16.90;99.90;;;;;;5107899;27;20805;-66
2023/08/27 10:03:26;;;;;;;;;;;16.90;99.90;;;;;;5104606;28;19911;-66
2023/08/27 10:05:53;;;;;;;;;;;16.90;99.90;;;;;;5109849;27;20269;-66
2023/08/27 10:08:20;;;;;;;;;;;16.90;99.90;;;;;;5106336;28;19916;-69
2023/08/27 10:10:47;;;;;;;;;;;16.90;99.90;;;;;;5104936;27;19916;-67
2023/08/27 10:13:19;;;;;;;;;;;16.90;99.90;;;;;;5105122;28;20632;-69
2023/08/27 10:15:46;;;;;;;;;;;16.80;99.90;;;;;;5112113;28;20003;-70
2023/08/27 10:18:16;;;;;;;;;;;16.80;99.90;;;;;;5110655;28;19912;-66
2023/08/27 10:20:43;;;;;;;;;;;16.80;99.90;;;;;;5112704;28;19916;-68
2023/08/27 10:23:14;;;;;;;;;;;16.70;99.90;;;;;;5099688;27;19912;-67
2023/08/27 10:25:42;;;;;;;;;;;16.70;99.90;;;;;;5094229;28;19912;-70
2023/08/27 10:28:09;;;;;;;;;;;16.70;99.90;;;;;;5117691;27;19934;-70
2023/08/27 10:30:36;;;;;;;;;;;16.70;99.90;;;;;;5108349;27;19912;-68
2023/08/27 10:33:03;;;;;;;;;;;16.70;99.90;;;;;;5096341;27;20288;-69
2023/08/27 10:35:34;;;;;;;;;;;16.70;99.90;;;;;;5104191;28;19984;-66
2023/08/27 10:38:01;;;;;;;;;;;16.60;99.90;;;;;;5107562;27;19911;-68
2023/08/27 10:40:28;;;;;;;;;;;16.70;99.90;;;;;;5111257;27;19920;-68
2023/08/27 10:43:06;;;;;;;;;;;16.60;99.90;;;;;;5096502;28;19922;-67
2023/08/27 10:45:36;;;;;;;;;;;16.60;99.90;;;;;;5092474;28;20011;-65
2023/08/27 10:48:23;;;;;;;;;;;16.60;99.90;;;;;;5119265;27;19911;-67
2023/08/27 10:50:51;;;;;;;;;;;16.50;99.90;;;;;;5106639;27;20292;-68
2023/08/27 10:53:19;;;;;;;;;;;16.50;99.90;;;;;;5076719;28;20007;-66
2023/08/27 10:55:50;;;;;;;;;;;16.50;99.90;;;;;;5093621;28;20330;-67
2023/08/27 10:58:20;;;;;;;;;;;16.40;99.90;;;;;;5110941;27;19951;-69
2023/08/27 11:01:03;;;;;;;;;;;16.40;99.90;;;;;;5104456;28;19916;-67
2023/08/27 11:03:48;;;;;;;;;;;16.40;99.90;;;;;;5110062;28;19912;-68
2023/08/27 11:06:15;;;;;;;;;;;16.30;99.90;;;;;;5109576;28;20003;-68
2023/08/27 11:08:42;;;;;;;;;;;16.20;99.90;;;;;;5106159;27;20276;-67
2023/08/27 11:11:12;;;;;;;;;;;16.30;99.90;;;;;;5103945;28;19912;-68
2023/08/27 11:13:41;;;;;;;;;;;16.20;99.90;;;;;;5111216;28;19998;-65
2023/08/27 11:16:11;;;;;;;;;;;16.10;99.90;;;;;;5095344;28;20372;-66
2023/08/27 11:18:45;;;;;;;;;;;16.10;99.90;;;;;;5104698;28;19965;-67
2023/08/27 11:21:26;;;;;;;;;;;16.10;99.90;;;;;;5112986;28;19968;-67
2023/08/27 11:24:11;;;;;;;;;;;16.00;99.90;;;;;;5111791;28;19995;-68
2023/08/27 11:26:39;;;;;;;;;;;16.00;99.90;;;;;;5111351;28;19912;-67
2023/08/27 11:29:10;;;;;;;;;;;15.90;99.90;;;;;;5107110;28;19913;-69
2023/08/27 11:31:40;;;;;;;;;;;15.80;99.90;;;;;;5109747;28;19911;-69
2023/08/27 11:34:07;;;;;;;;;;;15.80;99.90;;;;;;5112577;28;20055;-69
2023/08/27 11:36:34;;;;;;;;;;;15.80;99.90;;;;;;5112544;28;20371;-68
2023/08/27 11:39:01;;;;;;;;;;;15.70;99.90;;;;;;5112116;28;20053;-66
2023/08/27 11:41:36;;;;;;;;;;;15.70;99.90;;;;;;5092767;28;20292;-68
2023/08/27 11:44:03;;;;;;;;;;;15.60;99.90;;;;;;5092654;28;19915;-68
2023/08/27 11:46:30;;;;;;;;;;;15.50;99.90;;;;;;5092687;28;19920;-68
2023/08/27 11:48:57;;;;;;;;;;;15.50;99.90;;;;;;5092761;28;19908;-70
2023/08/27 11:51:24;;;;;;;;;;;15.50;99.90;;;;;;5092508;28;19908;-67
2023/08/27 11:53:51;;;;;;;;;;;15.40;99.90;;;;;;5074351;28;19961;-67
2023/08/27 11:56:18;;;;;;;;;;;15.40;99.90;;;;;;5100469;28;20454;-68
2023/08/27 11:58:45;;;;;;;;;;;15.30;99.90;;;;;;5094496;28;19918;-67
2023/08/27 12:01:12;;;;;;;;;;;15.30;99.90;;;;;;5112738;28;20322;-71
2023/08/27 12:03:39;;;;;;;;;;;15.20;99.90;;;;;;5112211;28;19908;-67
2023/08/27 12:06:05;;;;;;;;;;;15.10;99.90;;;;;;5113004;28;19915;-69
2023/08/27 12:08:35;;;;;;;;;;;15.10;99.90;;;;;;5110803;28;19919;-66
2023/08/27 12:11:02;;;;;;;;;;;14.90;99.90;;;;;;5098381;28;19912;-68
2023/08/27 12:13:30;;;;;;;;;;;15.00;99.90;;;;;;5092376;28;19915;-66
2023/08/27 12:15:56;;;;;;;;;;;15.00;99.90;;;;;;5092092;28;19935;-67
2023/08/27 12:18:23;;;;;;;;;;;14.90;99.90;;;;;;5092244;28;20353;-67
2023/08/27 12:20:50;;;;;;;;;;;14.80;99.90;;;;;;5092549;28;19916;-68
2023/08/27 12:23:16;;;;;;;;;;;14.90;99.90;;;;;;5101527;28;19919;-68
2023/08/27 12:25:46;;;;;;;;;;;14.80;99.90;;;;;;5107035;28;19908;-68
2023/08/27 12:28:13;;;;;;;;;;;14.80;99.90;;;;;;5092611;28;20288;-67
2023/08/27 12:30:46;;;;;;;;;;;14.80;99.90;;;;;;5092157;28;19912;-68
2023/08/27 12:33:13;;;;;;;;;;;14.70;99.90;;;;;;5092394;28;19908;-65
2023/08/27 12:35:43;;;;;;;;;;;14.70;99.90;;;;;;5091806;28;20404;-69
2023/08/27 12:38:10;;;;;;;;;;;14.70;99.90;;;;;;5093211;28;19965;-67
2023/08/27 12:40:37;;;;;;;;;;;14.60;99.90;;;;;;5092043;28;19920;-66
2023/08/27 12:43:03;;;;;;;;;;;14.60;99.90;;;;;;5095833;28;20320;-69
2023/08/27 12:45:31;;;;;;;;;;;14.60;99.90;;;;;;5095680;28;19991;-67
2023/08/27 12:48:02;;;;;;;;;;;14.50;99.90;;;;;;5096932;28;19912;-68
2023/08/27 12:50:29;;;;;;;;;;;14.50;99.90;;;;;;5095932;28;19908;-70
2023/08/27 12:52:55;;;;;;;;;;;14.50;99.90;;;;;;5095912;28;19908;-66
2023/08/27 12:55:23;;;;;;;;;;;14.50;99.90;;;;;;5104069;28;19970;-71
2023/08/27 12:57:49;;;;;;;;;;;14.40;99.90;;;;;;5095707;28;19961;-67
2023/08/27 13:00:16;;;;;;;;;;;14.40;99.90;;;;;;5095778;28;20361;-66
2023/08/27 13:02:43;;;;;;;;;;;14.40;99.90;;;;;;5095549;28;20361;-68
2023/08/27 13:05:10;;;;;;;;;;;14.40;99.90;;;;;;5101245;28;19995;-67
2023/08/27 13:07:37;;;;;;;;;;;14.30;99.90;;;;;;5112284;28;20479;-66
2023/08/27 13:10:04;;;;;;;;;;;14.30;99.90;;;;;;5109537;28;19916;-67
2023/08/27 13:12:32;;;;;;;;;;;14.30;99.90;;;;;;5115730;28;19940;-69
2023/08/27 13:14:58;;;;;;;;;;;14.30;99.90;;;;;;5100048;28;19912;-72
2023/08/27 13:17:25;;;;;;;;;;;14.20;99.90;;;;;;5095102;28;19913;-67
2023/08/27 13:19:51;;;;;;;;;;;14.20;99.90;;;;;;5095192;28;19912;-66
2023/08/27 13:22:18;;;;;;;;;;;14.20;99.90;;;;;;5101789;28;19982;-67
2023/08/27 13:24:45;;;;;;;;;;;14.10;99.90;;;;;;5115355;28;19960;-71
2023/08/27 13:27:12;;;;;;;;;;;14.10;99.90;;;;;;5115689;28;19916;-67
2023/08/27 13:29:38;;;;;;;;;;;14.20;99.90;;;;;;5115597;28;20274;-69
2023/08/27 13:32:05;;;;;;;;;;;14.00;99.90;;;;;;5115490;28;19979;-68
2023/08/27 13:34:33;;;;;;;;;;;14.10;99.90;;;;;;5102301;28;20319;-69
2023/08/27 13:37:00;;;;;;;;;;;14.00;99.90;;;;;;5115550;28;19914;-66
2023/08/27 13:39:26;;;;;;;;;;;14.00;99.90;;;;;;5113077;28;20269;-68
2023/08/27 13:41:54;;;;;;;;;;;13.90;99.90;;;;;;5094772;28;19916;-66
2023/08/27 13:44:20;;;;;;;;;;;13.90;99.90;;;;;;5094764;28;19999;-66
2023/08/27 13:46:47;;;;;;;;;;;14.00;99.90;;;;;;5094757;28;19920;-67
2023/08/27 13:49:14;;;;;;;;;;;13.90;99.90;;;;;;5095031;28;19912;-68
2023/08/27 13:51:40;;;;;;;;;;;13.90;99.90;;;;;;5094534;28;19995;-69
2023/08/27 13:54:09;;;;;;;;;;;13.80;99.90;;;;;;5106699;28;20368;-68
2023/08/27 13:56:35;;;;;;;;;;;13.90;99.90;;;;;;5113908;28;20300;-67
2023/08/27 13:59:02;;;;;;;;;;;13.90;99.90;;;;;;5094637;28;20062;-66
2023/08/27 14:01:30;;;;;;;;;;;13.90;99.90;;;;;;5094433;28;19923;-67
2023/08/27 14:03:57;;;;;;;;;;;13.90;99.90;;;;;;5108577;28;20010;-69
2023/08/27 14:06:23;;;;;;;;;;;13.90;99.90;;;;;;5114693;28;19973;-67
2023/08/27 14:08:51;;;;;;;;;;;13.90;99.90;;;;;;5114861;28;20002;-68
2023/08/27 14:11:18;;;;;;;;;;;13.90;99.90;;;;;;5096279;28;19915;-68
2023/08/27 14:13:45;;;;;;;;;;;13.90;99.90;;;;;;5113377;28;19919;-66
2023/08/27 14:16:12;;;;;;;;;;;13.90;99.90;;;;;;5113851;28;19918;-70
2023/08/27 14:18:38;;;;;;;;;;;13.90;99.90;;;;;;5114122;28;20000;-69